sensor_id;sensor_type;location;lat;lon;timestamp;P1;durP1;ratioP1;P2;durP2;ratioP2
45208;SDS011;30951;43.994;26.260;2024-03-23T00:55:58;20.77;;;12.25;;
45208;SDS011;30951;43.994;26.260;2024-03-23T00:58:24;23.13;;;12.55;;
45208;SDS011;30951;43.994;26.260;2024-03-23T01:00:50;21.40;;;12.68;;
45208;SDS011;30951;43.994;26.260;2024-03-23T01:03:15;19.45;;;12.15;;
45208;SDS011;30951;43.994;26.260;2024-03-23T01:05:41;26.27;;;12.48;;
45208;SDS011;30951;43.994;26.260;2024-03-23T01:08:06;22.50;;;12.45;;
45208;SDS011;30951;43.994;26.260;2024-03-23T01:10:32;20.25;;;12.40;;
45208;SDS011;30951;43.994;26.260;2024-03-23T01:12:57;19.88;;;12.52;;
45208;SDS011;30951;43.994;26.260;2024-03-23T01:15:23;19.85;;;11.70;;
45208;SDS011;30951;43.994;26.260;2024-03-23T01:17:48;18.02;;;11.35;;
45208;SDS011;30951;43.994;26.260;2024-03-23T01:20:14;19.98;;;12.75;;
45208;SDS011;30951;43.994;26.260;2024-03-23T01:22:39;19.90;;;12.13;;
45208;SDS011;30951;43.994;26.260;2024-03-23T01:25:05;17.58;;;11.65;;
45208;SDS011;30951;43.994;26.260;2024-03-23T01:27:31;21.02;;;11.95;;
45208;SDS011;30951;43.994;26.260;2024-03-23T01:29:56;23.38;;;12.68;;
45208;SDS011;30951;43.994;26.260;2024-03-23T01:32:22;20.40;;;12.75;;
45208;SDS011;30951;43.994;26.260;2024-03-23T01:34:47;25.88;;;13.52;;
45208;SDS011;30951;43.994;26.260;2024-03-23T01:37:13;26.45;;;12.75;;
45208;SDS011;30951;43.994;26.260;2024-03-23T01:39:38;22.45;;;13.13;;
45208;SDS011;30951;43.994;26.260;2024-03-23T01:42:04;21.10;;;12.60;;
45208;SDS011;30951;43.994;26.260;2024-03-23T01:44:29;20.70;;;12.95;;
45208;SDS011;30951;43.994;26.260;2024-03-23T01:46:55;21.83;;;12.82;;
45208;SDS011;30951;43.994;26.260;2024-03-23T01:49:20;27.73;;;13.75;;
45208;SDS011;30951;43.994;26.260;2024-03-23T01:51:46;22.17;;;11.77;;
45208;SDS011;30951;43.994;26.260;2024-03-23T01:54:12;20.67;;;12.27;;
45208;SDS011;30951;43.994;26.260;2024-03-23T01:56:37;21.35;;;12.75;;
45208;SDS011;30951;43.994;26.260;2024-03-23T01:59:06;22.83;;;12.60;;
45208;SDS011;30951;43.994;26.260;2024-03-23T02:01:32;23.02;;;12.73;;
45208;SDS011;30951;43.994;26.260;2024-03-23T02:03:58;18.00;;;12.02;;
45208;SDS011;30951;43.994;26.260;2024-03-23T02:06:24;22.00;;;11.80;;
45208;SDS011;30951;43.994;26.260;2024-03-23T02:08:50;18.33;;;11.52;;
45208;SDS011;30951;43.994;26.260;2024-03-23T02:11:16;20.42;;;12.25;;
45208;SDS011;30951;43.994;26.260;2024-03-23T02:13:42;21.98;;;13.30;;
45208;SDS011;30951;43.994;26.260;2024-03-23T02:16:07;21.95;;;12.13;;
45208;SDS011;30951;43.994;26.260;2024-03-23T02:18:34;22.25;;;12.63;;
45208;SDS011;30951;43.994;26.260;2024-03-23T02:20:59;19.55;;;12.07;;
45208;SDS011;30951;43.994;26.260;2024-03-23T02:23:25;20.08;;;12.25;;
45208;SDS011;30951;43.994;26.260;2024-03-23T02:25:50;19.85;;;12.25;;
45208;SDS011;30951;43.994;26.260;2024-03-23T02:28:16;22.98;;;11.27;;
45208;SDS011;30951;43.994;26.260;2024-03-23T02:30:42;22.60;;;11.85;;
45208;SDS011;30951;43.994;26.260;2024-03-23T02:33:08;19.65;;;11.75;;
45208;SDS011;30951;43.994;26.260;2024-03-23T02:35:33;18.17;;;10.57;;
45208;SDS011;30951;43.994;26.260;2024-03-23T02:37:59;19.73;;;10.93;;
45208;SDS011;30951;43.994;26.260;2024-03-23T02:40:25;20.08;;;11.52;;
45208;SDS011;30951;43.994;26.260;2024-03-23T02:42:51;18.20;;;11.52;;
45208;SDS011;30951;43.994;26.260;2024-03-23T02:45:16;20.85;;;11.43;;
45208;SDS011;30951;43.994;26.260;2024-03-23T02:47:42;18.08;;;10.93;;
45208;SDS011;30951;43.994;26.260;2024-03-23T02:50:08;21.02;;;11.93;;
45208;SDS011;30951;43.994;26.260;2024-03-23T02:52:34;19.38;;;10.90;;
45208;SDS011;30951;43.994;26.260;2024-03-23T02:55:01;18.45;;;10.27;;
45208;SDS011;30951;43.994;26.260;2024-03-23T02:57:27;18.77;;;10.57;;
45208;SDS011;30951;43.994;26.260;2024-03-23T02:59:53;18.35;;;10.90;;
45208;SDS011;30951;43.994;26.260;2024-03-23T03:02:18;19.92;;;11.27;;
45208;SDS011;30951;43.994;26.260;2024-03-23T03:04:45;23.13;;;13.07;;
45208;SDS011;30951;43.994;26.260;2024-03-23T03:07:10;25.25;;;13.38;;
45208;SDS011;30951;43.994;26.260;2024-03-23T03:09:36;21.77;;;12.15;;
45208;SDS011;30951;43.994;26.260;2024-03-23T03:12:04;20.13;;;11.20;;
45208;SDS011;30951;43.994;26.260;2024-03-23T03:14:30;22.42;;;12.60;;
45208;SDS011;30951;43.994;26.260;2024-03-23T03:16:56;27.08;;;12.70;;
45208;SDS011;30951;43.994;26.260;2024-03-23T03:19:21;24.23;;;14.27;;
45208;SDS011;30951;43.994;26.260;2024-03-23T03:21:47;31.02;;;13.02;;
45208;SDS011;30951;43.994;26.260;2024-03-23T03:24:16;25.70;;;13.50;;
45208;SDS011;30951;43.994;26.260;2024-03-23T03:26:42;27.65;;;15.57;;
45208;SDS011;30951;43.994;26.260;2024-03-23T03:29:07;24.90;;;14.00;;
45208;SDS011;30951;43.994;26.260;2024-03-23T03:31:33;29.80;;;16.92;;
45208;SDS011;30951;43.994;26.260;2024-03-23T03:33:58;27.95;;;14.88;;
45208;SDS011;30951;43.994;26.260;2024-03-23T03:36:24;27.63;;;14.43;;
45208;SDS011;30951;43.994;26.260;2024-03-23T03:38:49;25.50;;;13.32;;
45208;SDS011;30951;43.994;26.260;2024-03-23T03:41:15;24.27;;;13.13;;
45208;SDS011;30951;43.994;26.260;2024-03-23T03:43:41;27.08;;;13.35;;
45208;SDS011;30951;43.994;26.260;2024-03-23T03:46:06;23.20;;;14.20;;
45208;SDS011;30951;43.994;26.260;2024-03-23T03:48:36;25.83;;;14.25;;
45208;SDS011;30951;43.994;26.260;2024-03-23T03:51:01;33.35;;;18.50;;
45208;SDS011;30951;43.994;26.260;2024-03-23T03:53:27;26.75;;;14.20;;
45208;SDS011;30951;43.994;26.260;2024-03-23T03:55:53;30.15;;;15.95;;
45208;SDS011;30951;43.994;26.260;2024-03-23T03:58:18;24.50;;;14.30;;
45208;SDS011;30951;43.994;26.260;2024-03-23T04:00:44;30.48;;;16.48;;
45208;SDS011;30951;43.994;26.260;2024-03-23T04:03:09;25.80;;;16.90;;
45208;SDS011;30951;43.994;26.260;2024-03-23T04:05:35;34.55;;;17.23;;
45208;SDS011;30951;43.994;26.260;2024-03-23T04:08:00;27.33;;;15.70;;
45208;SDS011;30951;43.994;26.260;2024-03-23T04:10:26;27.92;;;14.55;;
45208;SDS011;30951;43.994;26.260;2024-03-23T04:12:52;28.13;;;14.82;;
45208;SDS011;30951;43.994;26.260;2024-03-23T04:15:18;28.33;;;15.02;;
45208;SDS011;30951;43.994;26.260;2024-03-23T04:17:44;24.70;;;13.02;;
45208;SDS011;30951;43.994;26.260;2024-03-23T04:20:10;24.42;;;12.73;;
45208;SDS011;30951;43.994;26.260;2024-03-23T04:22:39;25.67;;;13.27;;
45208;SDS011;30951;43.994;26.260;2024-03-23T04:25:05;23.70;;;14.13;;
45208;SDS011;30951;43.994;26.260;2024-03-23T04:27:36;28.20;;;14.97;;
45208;SDS011;30951;43.994;26.260;2024-03-23T04:30:02;29.92;;;15.80;;
45208;SDS011;30951;43.994;26.260;2024-03-23T04:32:29;30.83;;;15.07;;
45208;SDS011;30951;43.994;26.260;2024-03-23T04:34:54;24.92;;;14.75;;
45208;SDS011;30951;43.994;26.260;2024-03-23T04:37:21;27.00;;;15.27;;
45208;SDS011;30951;43.994;26.260;2024-03-23T04:39:47;29.83;;;15.77;;
45208;SDS011;30951;43.994;26.260;2024-03-23T04:42:14;28.70;;;15.95;;
45208;SDS011;30951;43.994;26.260;2024-03-23T04:44:40;30.88;;;16.65;;
45208;SDS011;30951;43.994;26.260;2024-03-23T04:47:05;27.08;;;14.98;;
45208;SDS011;30951;43.994;26.260;2024-03-23T04:49:31;32.78;;;15.77;;
45208;SDS011;30951;43.994;26.260;2024-03-23T04:51:57;31.55;;;15.15;;
45208;SDS011;30951;43.994;26.260;2024-03-23T04:54:23;24.42;;;13.82;;
45208;SDS011;30951;43.994;26.260;2024-03-23T04:56:49;25.45;;;14.23;;
45208;SDS011;30951;43.994;26.260;2024-03-23T04:59:14;25.38;;;13.27;;
45208;SDS011;30951;43.994;26.260;2024-03-23T05:01:40;23.23;;;13.43;;
45208;SDS011;30951;43.994;26.260;2024-03-23T05:04:07;30.55;;;12.73;;
45208;SDS011;30951;43.994;26.260;2024-03-23T05:06:33;26.45;;;13.23;;
45208;SDS011;30951;43.994;26.260;2024-03-23T05:08:59;26.27;;;13.18;;
45208;SDS011;30951;43.994;26.260;2024-03-23T05:11:25;27.38;;;14.90;;
45208;SDS011;30951;43.994;26.260;2024-03-23T05:13:50;26.42;;;15.20;;
45208;SDS011;30951;43.994;26.260;2024-03-23T05:16:16;23.85;;;14.57;;
45208;SDS011;30951;43.994;26.260;2024-03-23T05:18:41;23.92;;;15.23;;
45208;SDS011;30951;43.994;26.260;2024-03-23T05:21:07;33.45;;;18.20;;
45208;SDS011;30951;43.994;26.260;2024-03-23T05:23:32;34.45;;;18.83;;
45208;SDS011;30951;43.994;26.260;2024-03-23T05:25:58;31.23;;;16.23;;
45208;SDS011;30951;43.994;26.260;2024-03-23T05:28:24;26.55;;;15.25;;
45208;SDS011;30951;43.994;26.260;2024-03-23T05:30:50;22.95;;;14.88;;
45208;SDS011;30951;43.994;26.260;2024-03-23T05:33:17;24.00;;;12.88;;
45208;SDS011;30951;43.994;26.260;2024-03-23T05:35:44;17.98;;;10.18;;
45208;SDS011;30951;43.994;26.260;2024-03-23T05:38:09;13.48;;;9.50;;
45208;SDS011;30951;43.994;26.260;2024-03-23T05:40:35;13.18;;;8.05;;
45208;SDS011;30951;43.994;26.260;2024-03-23T05:43:02;17.52;;;9.85;;
45208;SDS011;30951;43.994;26.260;2024-03-23T05:45:29;13.98;;;8.82;;
45208;SDS011;30951;43.994;26.260;2024-03-23T05:47:54;13.88;;;8.45;;
45208;SDS011;30951;43.994;26.260;2024-03-23T05:50:22;12.55;;;8.50;;
45208;SDS011;30951;43.994;26.260;2024-03-23T05:52:48;11.98;;;8.13;;
45208;SDS011;30951;43.994;26.260;2024-03-23T05:55:14;12.40;;;8.65;;
45208;SDS011;30951;43.994;26.260;2024-03-23T05:57:40;12.55;;;8.27;;
45208;SDS011;30951;43.994;26.260;2024-03-23T06:00:06;13.38;;;8.70;;
45208;SDS011;30951;43.994;26.260;2024-03-23T06:02:40;16.35;;;9.98;;
45208;SDS011;30951;43.994;26.260;2024-03-23T06:05:07;17.60;;;9.02;;
45208;SDS011;30951;43.994;26.260;2024-03-23T06:07:33;16.45;;;9.68;;
45208;SDS011;30951;43.994;26.260;2024-03-23T06:09:58;19.05;;;9.50;;
45208;SDS011;30951;43.994;26.260;2024-03-23T06:12:24;13.82;;;8.13;;
45208;SDS011;30951;43.994;26.260;2024-03-23T06:14:49;12.70;;;8.52;;
45208;SDS011;30951;43.994;26.260;2024-03-23T06:17:15;15.10;;;9.27;;
45208;SDS011;30951;43.994;26.260;2024-03-23T06:19:40;14.52;;;8.60;;
45208;SDS011;30951;43.994;26.260;2024-03-23T06:22:06;12.98;;;9.02;;
45208;SDS011;30951;43.994;26.260;2024-03-23T06:24:32;12.52;;;8.10;;
45208;SDS011;30951;43.994;26.260;2024-03-23T06:26:57;13.32;;;8.07;;
45208;SDS011;30951;43.994;26.260;2024-03-23T06:29:23;13.32;;;9.27;;
45208;SDS011;30951;43.994;26.260;2024-03-23T06:31:55;14.40;;;9.20;;
45208;SDS011;30951;43.994;26.260;2024-03-23T06:34:20;15.55;;;8.27;;
45208;SDS011;30951;43.994;26.260;2024-03-23T06:36:49;14.90;;;9.68;;
45208;SDS011;30951;43.994;26.260;2024-03-23T06:39:14;15.13;;;9.55;;
45208;SDS011;30951;43.994;26.260;2024-03-23T06:41:45;15.30;;;10.05;;
45208;SDS011;30951;43.994;26.260;2024-03-23T06:44:17;15.23;;;9.50;;
45208;SDS011;30951;43.994;26.260;2024-03-23T06:46:42;17.13;;;10.52;;
45208;SDS011;30951;43.994;26.260;2024-03-23T06:49:08;15.70;;;9.65;;
45208;SDS011;30951;43.994;26.260;2024-03-23T06:51:33;18.85;;;11.00;;
45208;SDS011;30951;43.994;26.260;2024-03-23T06:53:59;21.98;;;10.82;;
45208;SDS011;30951;43.994;26.260;2024-03-23T06:56:24;23.17;;;11.40;;
45208;SDS011;30951;43.994;26.260;2024-03-23T06:58:50;15.27;;;9.80;;
45208;SDS011;30951;43.994;26.260;2024-03-23T07:01:15;16.17;;;8.57;;
45208;SDS011;30951;43.994;26.260;2024-03-23T07:03:41;15.27;;;8.25;;
45208;SDS011;30951;43.994;26.260;2024-03-23T07:06:07;19.67;;;8.90;;
45208;SDS011;30951;43.994;26.260;2024-03-23T07:08:35;17.25;;;8.98;;
45208;SDS011;30951;43.994;26.260;2024-03-23T07:11:00;16.15;;;8.38;;
45208;SDS011;30951;43.994;26.260;2024-03-23T07:13:27;18.77;;;8.18;;
45208;SDS011;30951;43.994;26.260;2024-03-23T07:15:53;17.13;;;8.02;;
45208;SDS011;30951;43.994;26.260;2024-03-23T07:18:21;16.20;;;8.45;;
45208;SDS011;30951;43.994;26.260;2024-03-23T07:20:56;12.77;;;7.70;;
45208;SDS011;30951;43.994;26.260;2024-03-23T07:23:22;15.27;;;8.32;;
45208;SDS011;30951;43.994;26.260;2024-03-23T07:28:30;19.58;;;8.57;;
45208;SDS011;30951;43.994;26.260;2024-03-23T07:31:12;12.07;;;7.40;;
45208;SDS011;30951;43.994;26.260;2024-03-23T07:33:43;18.58;;;8.10;;
45208;SDS011;30951;43.994;26.260;2024-03-23T07:36:10;14.65;;;7.60;;
45208;SDS011;30951;43.994;26.260;2024-03-23T07:38:35;11.50;;;7.95;;
45208;SDS011;30951;43.994;26.260;2024-03-23T07:41:05;15.73;;;8.48;;
45208;SDS011;30951;43.994;26.260;2024-03-23T07:43:34;15.93;;;7.70;;
45208;SDS011;30951;43.994;26.260;2024-03-23T07:46:00;12.60;;;8.05;;
45208;SDS011;30951;43.994;26.260;2024-03-23T07:48:26;11.98;;;7.35;;
45208;SDS011;30951;43.994;26.260;2024-03-23T07:53:27;20.00;;;9.15;;
45208;SDS011;30951;43.994;26.260;2024-03-23T07:55:54;14.38;;;8.90;;
45208;SDS011;30951;43.994;26.260;2024-03-23T07:58:21;16.88;;;8.43;;
45208;SDS011;30951;43.994;26.260;2024-03-23T08:00:47;15.93;;;8.75;;
45208;SDS011;30951;43.994;26.260;2024-03-23T08:03:12;15.90;;;8.57;;
45208;SDS011;30951;43.994;26.260;2024-03-23T08:05:38;12.20;;;7.93;;
45208;SDS011;30951;43.994;26.260;2024-03-23T08:08:03;17.35;;;7.03;;
45208;SDS011;30951;43.994;26.260;2024-03-23T08:10:29;17.83;;;7.68;;
45208;SDS011;30951;43.994;26.260;2024-03-23T08:12:54;12.60;;;8.10;;
45208;SDS011;30951;43.994;26.260;2024-03-23T08:15:20;13.20;;;7.47;;
45208;SDS011;30951;43.994;26.260;2024-03-23T08:17:45;11.25;;;7.38;;
45208;SDS011;30951;43.994;26.260;2024-03-23T08:20:11;13.43;;;7.05;;
45208;SDS011;30951;43.994;26.260;2024-03-23T08:22:37;17.08;;;6.82;;
45208;SDS011;30951;43.994;26.260;2024-03-23T08:25:02;9.98;;;6.60;;
45208;SDS011;30951;43.994;26.260;2024-03-23T08:27:29;7.45;;;5.70;;
45208;SDS011;30951;43.994;26.260;2024-03-23T08:29:54;10.75;;;6.53;;
45208;SDS011;30951;43.994;26.260;2024-03-23T08:32:20;12.20;;;6.38;;
45208;SDS011;30951;43.994;26.260;2024-03-23T08:34:45;10.18;;;6.22;;
45208;SDS011;30951;43.994;26.260;2024-03-23T08:37:11;9.20;;;6.50;;
45208;SDS011;30951;43.994;26.260;2024-03-23T08:39:36;7.85;;;5.75;;
45208;SDS011;30951;43.994;26.260;2024-03-23T08:42:02;7.43;;;5.95;;
45208;SDS011;30951;43.994;26.260;2024-03-23T08:44:27;8.68;;;5.35;;
45208;SDS011;30951;43.994;26.260;2024-03-23T08:46:55;8.15;;;5.93;;
45208;SDS011;30951;43.994;26.260;2024-03-23T08:49:21;9.15;;;5.60;;
45208;SDS011;30951;43.994;26.260;2024-03-23T08:51:47;8.43;;;5.45;;
45208;SDS011;30951;43.994;26.260;2024-03-23T08:54:12;11.05;;;5.93;;
45208;SDS011;30951;43.994;26.260;2024-03-23T08:56:38;7.78;;;5.07;;
45208;SDS011;30951;43.994;26.260;2024-03-23T08:59:03;4.70;;;4.25;;
45208;SDS011;30951;43.994;26.260;2024-03-23T09:01:29;12.38;;;5.05;;
45208;SDS011;30951;43.994;26.260;2024-03-23T09:03:54;7.20;;;3.70;;
45208;SDS011;30951;43.994;26.260;2024-03-23T09:06:20;5.32;;;4.15;;
45208;SDS011;30951;43.994;26.260;2024-03-23T09:08:46;6.28;;;4.22;;
45208;SDS011;30951;43.994;26.260;2024-03-23T09:11:12;7.90;;;3.83;;
45208;SDS011;30951;43.994;26.260;2024-03-23T09:13:38;5.20;;;3.55;;
45208;SDS011;30951;43.994;26.260;2024-03-23T09:16:05;5.63;;;4.10;;
45208;SDS011;30951;43.994;26.260;2024-03-23T09:18:31;9.05;;;3.63;;
45208;SDS011;30951;43.994;26.260;2024-03-23T09:20:58;5.22;;;3.97;;
45208;SDS011;30951;43.994;26.260;2024-03-23T09:23:23;4.15;;;3.40;;
45208;SDS011;30951;43.994;26.260;2024-03-23T09:25:49;5.43;;;4.43;;
45208;SDS011;30951;43.994;26.260;2024-03-23T09:28:14;6.75;;;3.90;;
45208;SDS011;30951;43.994;26.260;2024-03-23T09:30:40;5.05;;;3.72;;
45208;SDS011;30951;43.994;26.260;2024-03-23T09:33:12;7.82;;;3.92;;
45208;SDS011;30951;43.994;26.260;2024-03-23T09:35:38;8.23;;;3.95;;
45208;SDS011;30951;43.994;26.260;2024-03-23T09:38:04;4.50;;;3.65;;
45208;SDS011;30951;43.994;26.260;2024-03-23T09:40:31;4.72;;;4.22;;
45208;SDS011;30951;43.994;26.260;2024-03-23T09:42:56;4.88;;;3.90;;
45208;SDS011;30951;43.994;26.260;2024-03-23T09:45:26;7.20;;;4.32;;
45208;SDS011;30951;43.994;26.260;2024-03-23T09:47:52;4.50;;;3.47;;
45208;SDS011;30951;43.994;26.260;2024-03-23T09:50:18;4.90;;;3.78;;
45208;SDS011;30951;43.994;26.260;2024-03-23T09:52:46;5.60;;;4.15;;
45208;SDS011;30951;43.994;26.260;2024-03-23T09:55:12;4.93;;;3.92;;
45208;SDS011;30951;43.994;26.260;2024-03-23T09:57:39;6.32;;;3.95;;
45208;SDS011;30951;43.994;26.260;2024-03-23T10:00:05;6.00;;;4.32;;
45208;SDS011;30951;43.994;26.260;2024-03-23T10:02:31;7.28;;;4.13;;
45208;SDS011;30951;43.994;26.260;2024-03-23T10:04:58;6.00;;;4.13;;
45208;SDS011;30951;43.994;26.260;2024-03-23T10:07:23;5.38;;;4.28;;
45208;SDS011;30951;43.994;26.260;2024-03-23T10:09:49;4.13;;;3.72;;
45208;SDS011;30951;43.994;26.260;2024-03-23T10:12:18;5.20;;;3.92;;
45208;SDS011;30951;43.994;26.260;2024-03-23T10:14:44;8.85;;;4.65;;
45208;SDS011;30951;43.994;26.260;2024-03-23T10:19:39;4.05;;;3.33;;
45208;SDS011;30951;43.994;26.260;2024-03-23T10:22:06;5.10;;;3.85;;
45208;SDS011;30951;43.994;26.260;2024-03-23T10:24:32;6.53;;;3.42;;
45208;SDS011;30951;43.994;26.260;2024-03-23T10:26:57;4.75;;;3.75;;
45208;SDS011;30951;43.994;26.260;2024-03-23T10:29:23;8.98;;;3.17;;
45208;SDS011;30951;43.994;26.260;2024-03-23T10:31:51;5.78;;;3.78;;
45208;SDS011;30951;43.994;26.260;2024-03-23T10:34:16;6.22;;;4.50;;
45208;SDS011;30951;43.994;26.260;2024-03-23T10:36:42;5.55;;;3.38;;
45208;SDS011;30951;43.994;26.260;2024-03-23T10:39:09;6.25;;;3.50;;
45208;SDS011;30951;43.994;26.260;2024-03-23T10:41:35;3.90;;;3.22;;
45208;SDS011;30951;43.994;26.260;2024-03-23T10:44:01;2.95;;;2.40;;
45208;SDS011;30951;43.994;26.260;2024-03-23T10:46:27;4.97;;;3.20;;
45208;SDS011;30951;43.994;26.260;2024-03-23T10:48:53;10.02;;;3.72;;
45208;SDS011;30951;43.994;26.260;2024-03-23T10:51:19;6.38;;;3.45;;
45208;SDS011;30951;43.994;26.260;2024-03-23T10:53:44;6.15;;;3.08;;
45208;SDS011;30951;43.994;26.260;2024-03-23T10:56:10;11.00;;;3.85;;
45208;SDS011;30951;43.994;26.260;2024-03-23T10:58:38;3.95;;;2.83;;
45208;SDS011;30951;43.994;26.260;2024-03-23T11:01:05;3.10;;;2.72;;
45208;SDS011;30951;43.994;26.260;2024-03-23T11:03:31;5.78;;;2.97;;
45208;SDS011;30951;43.994;26.260;2024-03-23T11:05:58;3.97;;;3.30;;
45208;SDS011;30951;43.994;26.260;2024-03-23T11:11:20;4.00;;;2.92;;
45208;SDS011;30951;43.994;26.260;2024-03-23T11:13:50;9.18;;;3.20;;
45208;SDS011;30951;43.994;26.260;2024-03-23T11:18:49;4.28;;;3.30;;
45208;SDS011;30951;43.994;26.260;2024-03-23T11:24:19;7.20;;;3.42;;
45208;SDS011;30951;43.994;26.260;2024-03-23T11:26:46;5.15;;;3.20;;
45208;SDS011;30951;43.994;26.260;2024-03-23T11:29:16;11.32;;;5.25;;
45208;SDS011;30951;43.994;26.260;2024-03-23T11:31:49;3.97;;;3.10;;
45208;SDS011;30951;43.994;26.260;2024-03-23T11:34:18;7.85;;;4.05;;
45208;SDS011;30951;43.994;26.260;2024-03-23T11:36:44;3.88;;;2.70;;
45208;SDS011;30951;43.994;26.260;2024-03-23T11:39:17;4.65;;;3.22;;
45208;SDS011;30951;43.994;26.260;2024-03-23T11:41:47;6.25;;;3.40;;
45208;SDS011;30951;43.994;26.260;2024-03-23T11:44:19;6.35;;;3.80;;
45208;SDS011;30951;43.994;26.260;2024-03-23T11:46:47;4.22;;;3.83;;
45208;SDS011;30951;43.994;26.260;2024-03-23T11:49:26;9.40;;;3.47;;
45208;SDS011;30951;43.994;26.260;2024-03-23T11:51:52;5.18;;;3.65;;
45208;SDS011;30951;43.994;26.260;2024-03-23T11:54:24;12.38;;;4.20;;
45208;SDS011;30951;43.994;26.260;2024-03-23T11:56:54;5.65;;;3.83;;
45208;SDS011;30951;43.994;26.260;2024-03-23T11:59:40;3.78;;;3.10;;
45208;SDS011;30951;43.994;26.260;2024-03-23T12:02:09;4.45;;;3.53;;
45208;SDS011;30951;43.994;26.260;2024-03-23T12:04:36;11.10;;;4.53;;
45208;SDS011;30951;43.994;26.260;2024-03-23T12:10:03;4.95;;;3.60;;
45208;SDS011;30951;43.994;26.260;2024-03-23T12:12:32;6.35;;;3.17;;
45208;SDS011;30951;43.994;26.260;2024-03-23T12:15:02;5.70;;;2.83;;
45208;SDS011;30951;43.994;26.260;2024-03-23T12:17:27;6.32;;;4.40;;
45208;SDS011;30951;43.994;26.260;2024-03-23T12:19:53;6.43;;;3.80;;
45208;SDS011;30951;43.994;26.260;2024-03-23T12:22:22;10.88;;;3.58;;
45208;SDS011;30951;43.994;26.260;2024-03-23T12:24:48;4.30;;;2.90;;
45208;SDS011;30951;43.994;26.260;2024-03-23T12:27:14;6.53;;;3.80;;
45208;SDS011;30951;43.994;26.260;2024-03-23T12:29:40;5.10;;;3.65;;
45208;SDS011;30951;43.994;26.260;2024-03-23T12:32:07;9.40;;;3.85;;
45208;SDS011;30951;43.994;26.260;2024-03-23T12:34:33;7.28;;;3.75;;
45208;SDS011;30951;43.994;26.260;2024-03-23T12:36:58;5.63;;;3.28;;
45208;SDS011;30951;43.994;26.260;2024-03-23T12:39:24;4.75;;;3.17;;
45208;SDS011;30951;43.994;26.260;2024-03-23T12:41:49;4.65;;;3.25;;
45208;SDS011;30951;43.994;26.260;2024-03-23T12:44:15;6.15;;;3.00;;
45208;SDS011;30951;43.994;26.260;2024-03-23T12:46:41;5.50;;;3.10;;
45208;SDS011;30951;43.994;26.260;2024-03-23T12:49:07;4.90;;;3.20;;
45208;SDS011;30951;43.994;26.260;2024-03-23T12:51:33;5.00;;;3.85;;
45208;SDS011;30951;43.994;26.260;2024-03-23T12:53:58;8.07;;;2.95;;
45208;SDS011;30951;43.994;26.260;2024-03-23T12:56:24;3.35;;;3.03;;
45208;SDS011;30951;43.994;26.260;2024-03-23T12:58:50;6.18;;;3.40;;
45208;SDS011;30951;43.994;26.260;2024-03-23T13:01:17;4.63;;;3.20;;
45208;SDS011;30951;43.994;26.260;2024-03-23T13:03:46;6.50;;;3.65;;
45208;SDS011;30951;43.994;26.260;2024-03-23T13:06:15;4.10;;;2.80;;
45208;SDS011;30951;43.994;26.260;2024-03-23T13:08:41;3.10;;;2.78;;
45208;SDS011;30951;43.994;26.260;2024-03-23T13:11:08;3.50;;;3.20;;
45208;SDS011;30951;43.994;26.260;2024-03-23T13:13:35;6.30;;;3.28;;
45208;SDS011;30951;43.994;26.260;2024-03-23T13:16:04;5.55;;;2.60;;
45208;SDS011;30951;43.994;26.260;2024-03-23T13:18:30;3.40;;;2.78;;
45208;SDS011;30951;43.994;26.260;2024-03-23T13:20:57;3.45;;;3.15;;
45208;SDS011;30951;43.994;26.260;2024-03-23T13:23:22;3.60;;;2.72;;
45208;SDS011;30951;43.994;26.260;2024-03-23T13:25:52;9.40;;;3.22;;
45208;SDS011;30951;43.994;26.260;2024-03-23T13:28:21;4.38;;;2.78;;
45208;SDS011;30951;43.994;26.260;2024-03-23T13:30:54;3.78;;;2.83;;
45208;SDS011;30951;43.994;26.260;2024-03-23T13:33:20;2.53;;;2.33;;
45208;SDS011;30951;43.994;26.260;2024-03-23T13:35:53;7.72;;;3.40;;
45208;SDS011;30951;43.994;26.260;2024-03-23T13:38:19;6.10;;;2.95;;
45208;SDS011;30951;43.994;26.260;2024-03-23T13:40:49;3.85;;;3.00;;
45208;SDS011;30951;43.994;26.260;2024-03-23T13:43:21;6.40;;;3.53;;
45208;SDS011;30951;43.994;26.260;2024-03-23T13:45:47;4.03;;;3.20;;
45208;SDS011;30951;43.994;26.260;2024-03-23T13:48:14;4.20;;;3.30;;
45208;SDS011;30951;43.994;26.260;2024-03-23T13:50:40;4.93;;;3.20;;
45208;SDS011;30951;43.994;26.260;2024-03-23T13:53:05;5.05;;;3.75;;
45208;SDS011;30951;43.994;26.260;2024-03-23T13:55:31;4.95;;;3.00;;
45208;SDS011;30951;43.994;26.260;2024-03-23T13:57:57;5.00;;;3.20;;
45208;SDS011;30951;43.994;26.260;2024-03-23T14:00:23;4.38;;;3.20;;
45208;SDS011;30951;43.994;26.260;2024-03-23T14:02:48;4.93;;;3.30;;
45208;SDS011;30951;43.994;26.260;2024-03-23T14:05:14;7.03;;;4.07;;
45208;SDS011;30951;43.994;26.260;2024-03-23T14:07:40;5.72;;;3.45;;
45208;SDS011;30951;43.994;26.260;2024-03-23T14:10:05;8.00;;;3.33;;
45208;SDS011;30951;43.994;26.260;2024-03-23T14:12:31;5.53;;;3.15;;
45208;SDS011;30951;43.994;26.260;2024-03-23T14:14:57;5.25;;;3.10;;
45208;SDS011;30951;43.994;26.260;2024-03-23T14:17:23;3.33;;;2.80;;
45208;SDS011;30951;43.994;26.260;2024-03-23T14:19:48;4.60;;;3.20;;
45208;SDS011;30951;43.994;26.260;2024-03-23T14:22:15;4.63;;;3.28;;
45208;SDS011;30951;43.994;26.260;2024-03-23T14:24:44;9.35;;;3.42;;
45208;SDS011;30951;43.994;26.260;2024-03-23T14:27:10;7.28;;;3.30;;
45208;SDS011;30951;43.994;26.260;2024-03-23T14:29:35;4.47;;;2.97;;
45208;SDS011;30951;43.994;26.260;2024-03-23T14:32:01;6.95;;;2.88;;
45208;SDS011;30951;43.994;26.260;2024-03-23T14:34:27;6.00;;;2.95;;
45208;SDS011;30951;43.994;26.260;2024-03-23T14:36:55;5.75;;;2.90;;
45208;SDS011;30951;43.994;26.260;2024-03-23T14:39:23;4.28;;;2.80;;
45208;SDS011;30951;43.994;26.260;2024-03-23T14:41:52;3.42;;;2.75;;
45208;SDS011;30951;43.994;26.260;2024-03-23T14:44:18;5.70;;;3.00;;
45208;SDS011;30951;43.994;26.260;2024-03-23T14:46:43;4.70;;;3.00;;
45208;SDS011;30951;43.994;26.260;2024-03-23T14:49:14;3.42;;;2.67;;
45208;SDS011;30951;43.994;26.260;2024-03-23T14:51:41;4.78;;;2.90;;
45208;SDS011;30951;43.994;26.260;2024-03-23T14:54:07;6.18;;;3.65;;
45208;SDS011;30951;43.994;26.260;2024-03-23T14:56:32;10.52;;;4.00;;
45208;SDS011;30951;43.994;26.260;2024-03-23T14:58:59;7.93;;;4.18;;
45208;SDS011;30951;43.994;26.260;2024-03-23T15:01:25;6.97;;;3.95;;
45208;SDS011;30951;43.994;26.260;2024-03-23T15:03:51;6.82;;;4.32;;
45208;SDS011;30951;43.994;26.260;2024-03-23T15:06:18;6.38;;;4.30;;
45208;SDS011;30951;43.994;26.260;2024-03-23T15:08:44;4.70;;;2.92;;
45208;SDS011;30951;43.994;26.260;2024-03-23T15:11:10;3.60;;;2.60;;
45208;SDS011;30951;43.994;26.260;2024-03-23T15:13:36;7.90;;;2.72;;
45208;SDS011;30951;43.994;26.260;2024-03-23T15:16:03;4.57;;;3.28;;
45208;SDS011;30951;43.994;26.260;2024-03-23T15:18:29;6.40;;;3.30;;
45208;SDS011;30951;43.994;26.260;2024-03-23T15:20:59;4.82;;;3.03;;
45208;SDS011;30951;43.994;26.260;2024-03-23T15:23:29;6.72;;;4.35;;
45208;SDS011;30951;43.994;26.260;2024-03-23T15:25:55;4.57;;;3.80;;
45208;SDS011;30951;43.994;26.260;2024-03-23T15:28:22;5.38;;;3.65;;
45208;SDS011;30951;43.994;26.260;2024-03-23T15:30:48;7.43;;;4.18;;
45208;SDS011;30951;43.994;26.260;2024-03-23T15:33:14;8.82;;;4.32;;